Howell, MI

11:05 AM EDT on October 23, 2017 (GMT -0400)
Livingston County

Weather History for KOZW - September, 2013

Change the Weather History Date:

Friday, September 27, 2013

  Actual Average Record
Temperature  
Mean Temperature 59 °F -  
Max Temperature 75 °F 67 °F 89 °F (1999)
Min Temperature 43 °F 46 °F 43 °F (2013)
Degree Days  
Heating Degree Days 6    
Growing Degree Days 9 (Base 50)    
Moisture  
Dew Point 51 °F    
Average Humidity 75    
Maximum Humidity 99    
Minimum Humidity 41    
Precipitation  
Precipitation 0.00 in - - ()
Sea Level Pressure  
Sea Level Pressure 30.20 in    
Wind  
Wind Speed 2 mph (ESE)    
Max Wind Speed 12 mph    
Max Gust Speed 9 mph    
Visibility 10 miles    
Events      
Averages and records for this station are not official NWS values.
T = Trace of Precipitation, MM = Missing Value Source: NWS Daily Summary

Daily Weather History Graph

Daily Weather History Graph

Search for Another Location

Airport or City:

Trip Planner

Search our weather history database for the weather conditions in past years. The results will help you decide how hot, cold, wet, or windy it might be!

Date:

Astronomy

Sep. 27, 2013 Rise Set
Actual Time 7:28 AM EDT 7:23 PM EDT
Civil Twilight 7:00 AM EDT 7:51 PM EDT
Nautical Twilight 6:28 AM EDT 8:24 PM EDT
Astronomical Twilight 5:54 AM EDT 8:57 PM EDT
Moon 12:16 AM EDT (9/27) 3:08 PM EDT (9/27)
Length of Visible Light 12h 51m
Length of Day
11h 54m
Last Quarter, 45% of the Moon is Illuminated
Sep 27
Last Quarter
Oct 4
New
Oct 11
First Quarter
Oct 18
Full
Oct 26
Last Quarter

Hourly Weather History & Observations

Time (EDT) Temp. Dew Point Humidity Pressure Visibility Wind Dir Wind Speed Gust Speed Precip Events Conditions
12:14 AM 51.4 °F 50.4 °F 96% 30.15 in 10.0 mi Calm Calm - N/A   Clear
12:35 AM 51.3 °F 50.4 °F 97% 30.16 in 10.0 mi Calm Calm - N/A   Clear
12:54 AM 52.0 °F 50.7 °F 95% 30.16 in 10.0 mi Calm Calm - N/A   Clear
1:15 AM 51.1 °F 50.0 °F 96% 30.16 in 10.0 mi Calm Calm - N/A   Clear
1:34 AM 51.3 °F 49.8 °F 95% 30.16 in 10.0 mi Calm Calm - N/A   Clear
1:54 AM 49.3 °F 48.2 °F 96% 30.16 in 10.0 mi Calm Calm - N/A   Clear
2:15 AM 48.6 °F 47.7 °F 97% 30.16 in 10.0 mi Calm Calm - N/A   Clear
2:34 AM 48.6 °F 47.8 °F 97% 30.17 in 10.0 mi Calm Calm - N/A   Clear
2:54 AM 50.2 °F 49.5 °F 97% 30.17 in 10.0 mi Calm Calm - N/A   Clear
3:15 AM 48.9 °F 47.8 °F 96% 30.17 in 10.0 mi Calm Calm - N/A   Clear
3:34 AM 49.3 °F 48.2 °F 96% 30.17 in 10.0 mi Calm Calm - N/A   Clear
3:54 AM 48.2 °F 47.1 °F 96% 30.18 in 10.0 mi Calm Calm - N/A   Clear
4:15 AM 46.8 °F 45.9 °F 97% 30.18 in 10.0 mi Calm Calm - N/A   Clear
4:34 AM 46.8 °F 46.0 °F 97% 30.18 in 10.0 mi Calm Calm - N/A   Clear
4:54 AM 46.6 °F 45.9 °F 97% 30.18 in 10.0 mi Calm Calm - N/A   Clear
5:14 AM 44.6 °F 44.1 °F 98% 30.19 in 10.0 mi Calm Calm - N/A   Clear
5:34 AM 45.3 °F 45.0 °F 99% 30.19 in 10.0 mi Calm Calm - N/A   Clear
5:55 AM 45.5 °F 45.0 °F 98% 30.19 in 10.0 mi Calm Calm - N/A   Clear
6:14 AM 45.1 °F 44.8 °F 99% 30.20 in 10.0 mi Calm Calm - N/A   Clear
6:34 AM 44.8 °F 44.1 °F 97% 30.20 in 10.0 mi Calm Calm - N/A   Clear
6:55 AM 43.9 °F 43.3 °F 98% 30.21 in 10.0 mi Calm Calm - N/A   Clear
7:14 AM 46.8 °F 46.2 °F 98% 30.21 in - Calm Calm - N/A   Unknown
7:35 AM 44.2 °F 43.0 °F 95% 30.22 in 5.0 mi Calm Calm - N/A   Clear
7:54 AM 43.5 °F 42.8 °F 97% 30.23 in 1.0 mi Calm Calm - N/A   Mostly Cloudy
8:14 AM 44.8 °F 44.4 °F 99% 30.23 in 1.2 mi Calm Calm - N/A   Scattered Clouds
8:35 AM 48.9 °F 48.7 °F 99% 30.23 in 5.0 mi Calm Calm - N/A   Clear
8:54 AM 51.1 °F 50.7 °F 99% 30.23 in 5.0 mi Calm Calm - N/A   Clear
9:14 AM 53.6 °F 53.1 °F 98% 30.23 in 7.0 mi Calm Calm - N/A   Clear
9:35 AM 56.8 °F 55.0 °F 94% 30.23 in 10.0 mi Calm Calm - N/A   Clear
9:54 AM 59.9 °F 55.0 °F 84% 30.24 in 10.0 mi Calm Calm - N/A   Clear
10:14 AM 63.5 °F 54.9 °F 73% 30.24 in 10.0 mi Calm Calm - N/A   Clear
10:35 AM 66.2 °F 54.9 °F 67% 30.24 in 10.0 mi ESE 3.5 mph - N/A   Clear
10:54 AM 68.2 °F 54.3 °F 61% 30.24 in 10.0 mi ESE 5.8 mph - N/A   Clear
11:14 AM 70.0 °F 53.8 °F 56% 30.24 in 10.0 mi East 8.1 mph - N/A   Clear
11:35 AM 71.1 °F 52.9 °F 53% 30.24 in 10.0 mi ESE 5.8 mph - N/A   Clear
11:54 AM 71.6 °F 52.7 °F 51% 30.24 in 10.0 mi SE 6.9 mph - N/A   Clear
12:14 PM 72.5 °F 52.3 °F 49% 30.24 in 10.0 mi SE 10.4 mph - N/A   Clear
12:35 PM 72.5 °F 52.9 °F 50% 30.24 in 10.0 mi SE 4.6 mph - N/A   Clear
12:54 PM 73.0 °F 53.2 °F 50% 30.24 in 10.0 mi SE 9.2 mph - N/A   Clear
1:14 PM 72.9 °F 53.4 °F 50% 30.23 in 10.0 mi SE 5.8 mph 9.2 mph N/A   Clear
1:35 PM 73.6 °F 53.1 °F 49% 30.23 in 10.0 mi SE 4.6 mph - N/A   Clear
1:54 PM 73.8 °F 52.7 °F 48% 30.22 in 10.0 mi East 8.1 mph - N/A   Clear
2:14 PM 75.0 °F 51.1 °F 43% 30.22 in 10.0 mi ESE 8.1 mph - N/A   Clear
2:35 PM 75.4 °F 50.9 °F 42% 30.21 in 10.0 mi ESE 11.5 mph - N/A   Clear
2:54 PM 75.4 °F 50.2 °F 41% 30.20 in 10.0 mi ENE 9.2 mph - N/A   Clear
3:14 PM 75.2 °F 50.9 °F 42% 30.21 in 10.0 mi ESE 5.8 mph - N/A   Clear
3:35 PM 75.6 °F 50.2 °F 41% 30.20 in 10.0 mi SE 4.6 mph - N/A   Clear
3:54 PM 75.4 °F 51.1 °F 42% 30.20 in 10.0 mi ESE 6.9 mph - N/A   Clear
4:14 PM 75.6 °F 52.0 °F 44% 30.19 in 10.0 mi East 6.9 mph - N/A   Clear
4:35 PM 75.6 °F 50.9 °F 42% 30.19 in 10.0 mi ESE 6.9 mph - N/A   Clear
4:54 PM 75.0 °F 50.7 °F 42% 30.18 in 10.0 mi SE 4.6 mph - N/A   Clear
5:14 PM 74.7 °F 50.5 °F 43% 30.18 in 10.0 mi East 8.1 mph - N/A   Clear
5:35 PM 74.7 °F 51.8 °F 45% 30.18 in 10.0 mi ESE 5.8 mph - N/A   Clear
5:54 PM 73.9 °F 52.0 °F 46% 30.18 in 10.0 mi ESE 8.1 mph - N/A   Clear
6:14 PM 72.9 °F 51.8 °F 47% 30.18 in 10.0 mi East 6.9 mph - N/A   Clear
6:35 PM 72.0 °F 50.9 °F 47% 30.19 in 10.0 mi East 6.9 mph - N/A   Clear
6:54 PM 69.4 °F 50.9 °F 52% 30.18 in 10.0 mi East 6.9 mph - N/A   Clear
7:14 PM 67.8 °F 50.9 °F 55% 30.18 in 10.0 mi East 5.8 mph - N/A   Clear
7:35 PM 66.2 °F 50.9 °F 58% 30.18 in 10.0 mi East 4.6 mph - N/A   Clear
7:54 PM 63.7 °F 50.9 °F 63% 30.17 in 10.0 mi Calm Calm - N/A   Clear
8:14 PM 63.5 °F 51.1 °F 64% 30.18 in 10.0 mi Calm Calm - N/A   Clear
8:35 PM 61.0 °F 51.6 °F 71% 30.17 in 10.0 mi ESE 4.6 mph - N/A   Clear
8:54 PM 58.6 °F 52.5 °F 80% 30.18 in 10.0 mi SE 4.6 mph - N/A   Clear
9:14 PM 59.5 °F 54.3 °F 83% 30.19 in 10.0 mi SSE 5.8 mph - N/A   Clear
9:35 PM 59.5 °F 54.9 °F 84% 30.19 in 10.0 mi SSE 4.6 mph - N/A   Clear
9:54 PM 58.5 °F 54.7 °F 87% 30.20 in 10.0 mi SSE 4.6 mph - N/A   Clear
10:14 PM 57.9 °F 54.5 °F 88% 30.20 in 10.0 mi SE 5.8 mph - N/A   Clear
10:35 PM 56.3 °F 54.1 °F 92% 30.20 in 10.0 mi SE 5.8 mph - N/A   Clear
10:54 PM 55.6 °F 54.0 °F 94% 30.20 in 10.0 mi SE 4.6 mph - N/A   Clear
11:15 PM 56.8 °F 55.2 °F 94% 30.20 in 10.0 mi ESE 3.5 mph - N/A   Clear
11:34 PM 56.5 °F 54.9 °F 94% 30.20 in 10.0 mi Calm Calm - N/A   Clear
11:54 PM 55.6 °F 54.1 °F 95% 30.20 in 10.0 mi Calm Calm - N/A   Clear